createdAt,value
2023-04-27T00:01:00.317Z,54.39
2023-04-27T00:03:27.387Z,54.60
2023-04-27T00:05:53.989Z,54.95
2023-04-27T00:08:20.466Z,56.50
2023-04-27T00:10:46.839Z,56.15
2023-04-27T00:13:13.182Z,56.39
2023-04-27T00:15:39.599Z,56.69
2023-04-27T00:18:06.189Z,56.88
2023-04-27T00:20:33.817Z,56.20
2023-04-27T00:23:00.248Z,56.42
2023-04-27T00:25:26.686Z,56.64
2023-04-27T00:27:53.206Z,57.08
2023-04-27T00:30:20.092Z,57.62
2023-04-27T00:32:46.594Z,57.02
2023-04-27T00:35:13.113Z,56.96
2023-04-27T00:37:39.625Z,57.49
2023-04-27T00:40:07.831Z,56.52
2023-04-27T00:42:34.918Z,56.64
2023-04-27T00:45:01.563Z,56.97
2023-04-27T00:47:30.076Z,57.19
2023-04-27T00:49:56.610Z,57.12
2023-04-27T00:52:23.018Z,57.02
2023-04-27T00:54:52.729Z,57.51
2023-04-27T00:57:19.158Z,57.46
2023-04-27T00:59:46.109Z,57.83
2023-04-27T01:02:13.583Z,58.28
2023-04-27T01:04:40.931Z,58.18
2023-04-27T01:07:07.302Z,58.25
2023-04-27T01:09:33.644Z,58.52
2023-04-27T01:11:59.988Z,58.96
2023-04-27T01:14:26.326Z,58.96
2023-04-27T01:16:52.742Z,58.84
2023-04-27T01:19:19.115Z,58.72
2023-04-27T01:21:45.614Z,59.07
2023-04-27T01:24:12.058Z,59.85
2023-04-27T01:26:38.386Z,59.56
2023-04-27T01:29:04.714Z,59.99
2023-04-27T01:31:31.236Z,59.48
2023-04-27T01:33:57.621Z,59.13
2023-04-27T01:36:24.025Z,60.04
2023-04-27T01:38:51.121Z,60.26
2023-04-27T01:41:17.526Z,59.35
2023-04-27T01:43:43.877Z,59.32
2023-04-27T01:46:12.880Z,59.24
2023-04-27T01:48:40.395Z,59.04
2023-04-27T01:51:07.142Z,59.47
2023-04-27T01:53:34.302Z,59.29
2023-04-27T01:56:00.745Z,59.55
2023-04-27T01:58:27.764Z,58.97
2023-04-27T02:00:54.196Z,60.00
2023-04-27T02:03:20.625Z,59.71
2023-04-27T02:05:47.929Z,59.69
2023-04-27T02:08:14.432Z,59.93
2023-04-27T02:10:41.082Z,60.12
2023-04-27T02:13:07.522Z,60.38
2023-04-27T02:15:35.286Z,60.29
2023-04-27T02:18:03.278Z,60.21
2023-04-27T02:20:33.179Z,60.60
2023-04-27T02:22:59.594Z,60.37
2023-04-27T02:25:25.958Z,60.58
2023-04-27T02:27:52.330Z,60.63
2023-04-27T02:30:19.335Z,60.96
2023-04-27T02:32:46.464Z,61.29
2023-04-27T02:35:13.034Z,60.85
2023-04-27T02:37:39.456Z,61.33
2023-04-27T02:40:07.939Z,61.43
2023-04-27T02:42:34.300Z,60.83
2023-04-27T02:45:00.733Z,60.29
2023-04-27T02:47:27.326Z,60.04
2023-04-27T02:49:53.653Z,60.31
2023-04-27T02:52:20.020Z,59.81
2023-04-27T02:54:46.354Z,59.28
2023-04-27T02:57:12.680Z,58.33
2023-04-27T02:59:39.466Z,58.46
2023-04-27T03:02:05.859Z,59.07
2023-04-27T03:04:32.248Z,59.22
2023-04-27T03:06:58.681Z,59.00
2023-04-27T03:09:25.177Z,59.25
2023-04-27T03:11:51.546Z,59.14
2023-04-27T03:14:17.842Z,59.40
2023-04-27T03:16:44.194Z,59.50
2023-04-27T03:19:10.627Z,59.96
2023-04-27T03:21:37.050Z,59.96
2023-04-27T03:24:03.659Z,60.07
2023-04-27T03:26:30.050Z,59.26
2023-04-27T03:28:56.355Z,58.91
2023-04-27T03:31:22.847Z,59.39
2023-04-27T03:33:49.388Z,58.78
2023-04-27T03:36:15.927Z,59.75
2023-04-27T03:38:42.380Z,59.11
2023-04-27T03:41:08.785Z,59.10
2023-04-27T03:43:35.119Z,59.76
2023-04-27T03:46:01.585Z,60.14
2023-04-27T03:48:28.007Z,59.56
2023-04-27T03:50:54.326Z,59.53
2023-04-27T03:53:20.659Z,59.63
2023-04-27T03:55:47.665Z,61.17
2023-04-27T03:58:14.085Z,61.12
2023-04-27T04:00:40.691Z,61.52
2023-04-27T04:03:07.793Z,61.73
2023-04-27T04:05:34.791Z,62.33
2023-04-27T04:08:01.176Z,62.47
2023-04-27T04:10:27.759Z,62.59
2023-04-27T04:12:54.182Z,62.49
2023-04-27T04:15:20.705Z,62.14
2023-04-27T04:17:47.627Z,61.79
2023-04-27T04:20:14.134Z,61.84
2023-04-27T04:22:40.527Z,62.62
2023-04-27T04:25:07.704Z,62.34
2023-04-27T04:27:34.022Z,62.72
2023-04-27T04:30:00.714Z,62.57
2023-04-27T04:32:30.016Z,62.72
2023-04-27T04:34:56.997Z,63.15
2023-04-27T04:37:23.564Z,62.98
2023-04-27T04:39:50.236Z,62.54
2023-04-27T04:42:16.641Z,63.13
2023-04-27T04:44:43.011Z,63.27
2023-04-27T04:47:12.273Z,63.58
2023-04-27T04:49:38.627Z,63.15
2023-04-27T04:52:05.215Z,62.97
2023-04-27T04:54:31.686Z,64.49
2023-04-27T04:57:03.401Z,64.83
2023-04-27T04:59:33.998Z,64.22
2023-04-27T05:02:00.685Z,63.88
2023-04-27T05:04:27.542Z,63.23
2023-04-27T05:06:54.013Z,62.90
2023-04-27T05:09:20.439Z,62.70
2023-04-27T05:11:46.803Z,63.02
2023-04-27T05:14:13.214Z,62.60
2023-04-27T05:16:39.629Z,62.95
2023-04-27T05:19:07.166Z,62.72
2023-04-27T05:21:33.628Z,62.48
2023-04-27T05:24:02.741Z,62.38
2023-04-27T05:26:29.105Z,62.64
2023-04-27T05:28:55.574Z,62.81
2023-04-27T05:31:22.345Z,62.72
2023-04-27T05:33:49.928Z,62.58
2023-04-27T05:36:16.527Z,61.91
2023-04-27T05:38:43.357Z,62.31
2023-04-27T05:41:09.838Z,62.51
2023-04-27T05:43:38.734Z,62.19
2023-04-27T05:46:05.445Z,62.20
2023-04-27T05:48:31.849Z,62.49
2023-04-27T05:51:03.413Z,62.41
2023-04-27T05:53:30.853Z,62.29
2023-04-27T05:56:01.182Z,62.12
2023-04-27T05:58:27.774Z,62.50
2023-04-27T06:00:54.681Z,62.46
2023-04-27T06:03:21.811Z,62.08
2023-04-27T06:05:54.970Z,62.21
2023-04-27T06:08:26.921Z,61.80
2023-04-27T06:10:53.855Z,61.96
2023-04-27T06:13:20.394Z,62.22
2023-04-27T06:15:46.918Z,62.57
2023-04-27T06:18:13.793Z,62.13
2023-04-27T06:20:40.433Z,62.20
2023-04-27T06:23:07.128Z,61.56
2023-04-27T06:25:34.595Z,61.83
2023-04-27T06:28:01.221Z,61.46
2023-04-27T06:30:27.843Z,61.70
2023-04-27T06:32:54.251Z,60.76
2023-04-27T06:35:21.761Z,59.77
2023-04-27T06:37:48.130Z,59.80
2023-04-27T06:40:14.744Z,59.96
2023-04-27T06:42:41.128Z,60.24
2023-04-27T06:45:07.948Z,59.93
2023-04-27T06:47:34.322Z,60.07
2023-04-27T06:50:00.672Z,59.13
2023-04-27T06:52:27.220Z,58.69
2023-04-27T06:54:54.125Z,58.74
2023-04-27T06:57:20.447Z,59.45
2023-04-27T06:59:46.813Z,58.96
2023-04-27T07:02:13.343Z,56.44
2023-04-27T07:04:39.985Z,57.64
2023-04-27T07:07:06.340Z,57.77
2023-04-27T07:09:32.907Z,56.32
2023-04-27T07:12:01.111Z,56.01
2023-04-27T07:14:27.443Z,56.31
2023-04-27T07:16:53.805Z,56.67
2023-04-27T07:19:20.386Z,57.24
2023-04-27T07:21:47.990Z,56.57
2023-04-27T07:24:14.703Z,56.71
2023-04-27T07:26:41.362Z,56.92
2023-04-27T07:29:22.888Z,56.64
2023-04-27T07:31:52.881Z,55.73
2023-04-27T07:34:19.442Z,55.38
2023-04-27T07:36:45.909Z,55.38
2023-04-27T07:39:12.791Z,55.43
2023-04-27T07:41:39.354Z,54.56
2023-04-27T07:44:05.678Z,53.59
2023-04-27T07:46:32.306Z,54.44
2023-04-27T07:48:59.887Z,53.64
2023-04-27T07:51:28.634Z,52.97
2023-04-27T07:53:55.595Z,53.17
2023-04-27T07:56:22.063Z,52.42
2023-04-27T07:58:48.394Z,51.63
2023-04-27T08:01:14.778Z,52.35
2023-04-27T08:03:41.354Z,51.32
2023-04-27T08:06:08.237Z,51.95
2023-04-27T08:08:34.987Z,51.91
2023-04-27T08:11:01.755Z,50.54
2023-04-27T08:13:28.194Z,52.11
2023-04-27T08:15:58.388Z,50.18
2023-04-27T08:18:25.724Z,49.45
2023-04-27T08:20:52.555Z,48.91
2023-04-27T08:23:18.985Z,51.03
2023-04-27T08:25:45.440Z,50.43
2023-04-27T08:28:13.256Z,51.23
2023-04-27T08:30:39.656Z,49.44
2023-04-27T08:33:06.175Z,49.87
2023-04-27T08:35:32.566Z,48.56
2023-04-27T08:38:01.329Z,49.29
2023-04-27T08:40:29.489Z,48.84
2023-04-27T08:43:01.006Z,47.36
2023-04-27T08:45:28.563Z,47.54
2023-04-27T08:47:54.943Z,46.54
2023-04-27T08:50:24.092Z,45.72
2023-04-27T08:52:51.920Z,46.76
2023-04-27T08:55:18.472Z,47.29
2023-04-27T08:57:58.179Z,46.90
2023-04-27T09:00:25.969Z,46.08
2023-04-27T09:02:52.824Z,44.16
2023-04-27T09:05:22.080Z,44.67
2023-04-27T09:08:08.002Z,42.39
2023-04-27T09:10:47.874Z,45.47
2023-04-27T09:13:14.672Z,44.98
2023-04-27T09:15:48.606Z,45.32
2023-04-27T09:18:19.927Z,42.96
2023-04-27T09:20:48.893Z,44.73
2023-04-27T09:23:34.922Z,42.45
2023-04-27T09:26:05.695Z,41.00
2023-04-27T09:28:32.403Z,39.89
2023-04-27T09:31:00.709Z,39.80
2023-04-27T09:33:28.400Z,40.25
2023-04-27T09:35:56.579Z,39.75
2023-04-27T09:38:23.735Z,38.50
2023-04-27T09:40:52.594Z,37.71
2023-04-27T09:43:19.339Z,39.74
2023-04-27T09:45:46.337Z,39.96
2023-04-27T09:48:13.658Z,39.68
2023-04-27T09:50:42.408Z,39.81
2023-04-27T09:53:12.039Z,38.85
2023-04-27T09:55:50.492Z,37.18
2023-04-27T09:58:43.661Z,35.94
2023-04-27T10:01:37.306Z,36.22
2023-04-27T10:04:41.764Z,35.68
2023-04-27T10:07:15.266Z,36.39
2023-04-27T10:09:44.846Z,36.20
2023-04-27T10:12:21.626Z,35.40
2023-04-27T10:14:58.916Z,35.84
2023-04-27T10:17:34.014Z,35.83
2023-04-27T10:20:02.282Z,35.33
2023-04-27T10:22:42.996Z,35.27
2023-04-27T10:25:29.756Z,34.59
2023-04-27T10:27:59.329Z,35.80
2023-04-27T10:30:31.767Z,34.46
2023-04-27T10:33:03.976Z,34.41
2023-04-27T10:35:38.327Z,34.52
2023-04-27T10:38:22.672Z,34.32
2023-04-27T10:41:02.615Z,34.84
2023-04-27T10:43:31.749Z,34.70
2023-04-27T10:46:39.592Z,34.14
2023-04-27T10:49:09.729Z,32.24
2023-04-27T10:54:46.380Z,30.72
2023-04-27T10:57:13.076Z,29.89
2023-04-27T10:59:51.296Z,29.08
2023-04-27T11:02:24.995Z,28.64
2023-04-27T11:04:51.682Z,28.31
2023-04-27T11:07:26.430Z,27.20
2023-04-27T11:09:53.182Z,28.16
2023-04-27T11:12:19.909Z,27.22
2023-04-27T11:14:46.546Z,26.16
2023-04-27T11:17:13.369Z,27.91
2023-04-27T11:19:47.821Z,26.34
2023-04-27T11:22:18.834Z,26.48
2023-04-27T11:24:50.019Z,26.71
2023-04-27T11:27:17.877Z,26.43
2023-04-27T11:29:44.854Z,26.73
2023-04-27T11:32:21.919Z,27.74
2023-04-27T11:34:53.667Z,27.67
2023-04-27T11:37:25.354Z,24.77
2023-04-27T11:39:54.196Z,27.58
2023-04-27T11:42:26.373Z,25.58
2023-04-27T11:45:01.099Z,26.62
2023-04-27T11:47:29.177Z,26.95
2023-04-27T11:50:01.065Z,24.67
2023-04-27T11:52:35.742Z,24.73
2023-04-27T11:55:06.082Z,25.67
2023-04-27T11:57:34.004Z,22.54
2023-04-27T12:00:02.135Z,23.62
2023-04-27T12:02:32.090Z,25.46
2023-04-27T12:04:59.828Z,25.09
2023-04-27T12:07:26.917Z,25.35
2023-04-27T12:09:53.319Z,25.78
2023-04-27T12:12:22.389Z,26.53
2023-04-27T12:14:49.902Z,27.59
2023-04-27T12:17:16.575Z,24.35
2023-04-27T12:19:43.086Z,27.01
2023-04-27T12:22:09.664Z,24.18
2023-04-27T12:24:37.011Z,22.04
2023-04-27T12:27:04.301Z,21.80
2023-04-27T12:33:50.113Z,21.33
2023-04-27T12:40:08.970Z,22.16
2023-04-27T12:42:35.724Z,20.11
2023-04-27T12:45:02.143Z,21.20
2023-04-27T12:47:49.839Z,21.11
2023-04-27T12:50:15.741Z,23.35
2023-04-27T12:52:42.135Z,21.43
2023-04-27T12:55:17.983Z,24.76
2023-04-27T12:57:53.574Z,21.68
2023-04-27T13:00:20.526Z,23.01
2023-04-27T13:02:46.997Z,21.89
2023-04-27T13:05:13.494Z,20.24
2023-04-27T13:07:39.885Z,19.98
2023-04-27T13:10:08.024Z,21.60
2023-04-27T13:12:34.483Z,21.26
2023-04-27T13:15:01.015Z,22.23
2023-04-27T13:17:27.472Z,22.48
2023-04-27T13:19:55.175Z,22.46
2023-04-27T13:22:21.585Z,22.04
2023-04-27T13:24:47.915Z,23.22
2023-04-27T13:27:14.292Z,20.62
2023-04-27T13:29:40.760Z,23.14
2023-04-27T13:32:07.195Z,23.28
2023-04-27T13:34:33.574Z,23.60
2023-04-27T13:37:00.171Z,23.18
2023-04-27T13:39:26.550Z,23.44
2023-04-27T13:41:53.967Z,23.04
2023-04-27T13:44:20.347Z,22.54
2023-04-27T13:46:46.795Z,23.59
2023-04-27T13:49:13.321Z,20.65
2023-04-27T13:51:40.517Z,23.19
2023-04-27T13:54:06.908Z,23.07
2023-04-27T13:56:33.268Z,24.42
2023-04-27T13:59:00.273Z,24.35
2023-04-27T14:01:27.122Z,22.10
2023-04-27T14:03:53.946Z,22.25
2023-04-27T14:06:20.579Z,24.27
2023-04-27T14:08:47.031Z,24.13
2023-04-27T14:11:13.511Z,23.40
2023-04-27T14:13:39.848Z,22.70
2023-04-27T14:16:07.113Z,25.48
2023-04-27T14:18:33.616Z,26.36
2023-04-27T14:21:00.076Z,25.49
2023-04-27T14:23:26.530Z,24.92
2023-04-27T14:25:53.033Z,24.50
2023-04-27T14:28:19.350Z,22.94
2023-04-27T14:30:45.878Z,21.68
2023-04-27T14:33:12.344Z,25.93
2023-04-27T14:35:38.807Z,25.90
2023-04-27T14:38:05.402Z,25.23
2023-04-27T14:40:32.246Z,24.11
2023-04-27T14:42:58.818Z,24.72
2023-04-27T14:45:29.027Z,24.21
2023-04-27T14:48:00.785Z,25.04
2023-04-27T14:50:28.088Z,25.07
2023-04-27T14:52:58.341Z,23.49
2023-04-27T14:55:24.972Z,22.85
2023-04-27T14:57:51.424Z,24.92
2023-04-27T15:00:18.044Z,24.61
2023-04-27T15:02:44.549Z,22.68
2023-04-27T15:05:11.025Z,23.53
2023-04-27T15:07:37.429Z,23.96
2023-04-27T15:10:04.350Z,22.31
2023-04-27T15:12:30.699Z,24.23
2023-04-27T15:14:57.065Z,25.83
2023-04-27T15:17:23.971Z,24.39
2023-04-27T15:19:51.618Z,25.69
2023-04-27T15:22:18.011Z,23.49
2023-04-27T15:24:44.378Z,24.29
2023-04-27T15:27:10.979Z,26.00
2023-04-27T15:29:37.382Z,24.02
2023-04-27T15:32:04.140Z,24.06
2023-04-27T15:34:31.005Z,24.54
2023-04-27T15:36:57.711Z,26.85
2023-04-27T15:39:24.030Z,26.21
2023-04-27T15:41:50.340Z,27.51
2023-04-27T15:44:16.827Z,27.28
2023-04-27T15:46:43.357Z,27.14
2023-04-27T15:49:12.297Z,26.29
2023-04-27T15:51:38.844Z,27.04
2023-04-27T15:54:05.410Z,27.91
2023-04-27T15:56:31.918Z,28.74
2023-04-27T15:58:58.321Z,26.68
2023-04-27T16:01:25.902Z,26.63
2023-04-27T16:03:52.428Z,28.09
2023-04-27T16:06:18.800Z,26.73
2023-04-27T16:08:45.272Z,27.67
2023-04-27T16:11:12.946Z,27.07
2023-04-27T16:13:39.817Z,28.06
2023-04-27T16:16:08.483Z,28.17
2023-04-27T16:18:36.481Z,28.78
2023-04-27T16:21:03.947Z,27.24
2023-04-27T16:23:30.550Z,26.56
2023-04-27T16:25:57.297Z,27.84
2023-04-27T16:28:23.662Z,26.59
2023-04-27T16:30:52.773Z,28.01
2023-04-27T16:33:19.817Z,27.42
2023-04-27T16:35:47.093Z,27.41
2023-04-27T16:38:13.805Z,27.44
2023-04-27T16:40:40.406Z,26.74
2023-04-27T16:43:06.770Z,28.15
2023-04-27T16:45:34.029Z,28.22
2023-04-27T16:48:02.059Z,30.24
2023-04-27T16:50:32.399Z,29.74
2023-04-27T16:53:06.865Z,29.88
2023-04-27T16:55:34.352Z,28.06
2023-04-27T16:58:01.149Z,28.45
2023-04-27T17:00:28.679Z,28.83
2023-04-27T17:02:55.492Z,30.53
2023-04-27T17:05:22.000Z,28.04
2023-04-27T17:07:48.380Z,29.20
2023-04-27T17:10:16.427Z,29.39
2023-04-27T17:12:42.786Z,28.41
2023-04-27T17:15:10.747Z,29.33
2023-04-27T17:17:37.210Z,30.49
2023-04-27T17:20:06.566Z,29.56
2023-04-27T17:22:33.010Z,30.04
2023-04-27T17:24:59.401Z,31.19
2023-04-27T17:27:26.008Z,29.75
2023-04-27T17:29:54.406Z,30.15
2023-04-27T17:32:20.896Z,31.17
2023-04-27T17:34:47.403Z,31.50
2023-04-27T17:37:14.763Z,32.55
2023-04-27T17:39:41.454Z,32.05
2023-04-27T17:42:12.140Z,31.26
2023-04-27T17:44:41.047Z,31.59
2023-04-27T17:47:08.298Z,31.79
2023-04-27T17:49:35.042Z,31.07
2023-04-27T17:52:01.439Z,32.22
2023-04-27T17:54:29.928Z,32.22
2023-04-27T17:56:56.602Z,31.54
2023-04-27T17:59:23.119Z,32.05
2023-04-27T18:01:49.621Z,32.53
2023-04-27T18:04:16.194Z,32.55
2023-04-27T18:06:42.651Z,32.26
2023-04-27T18:09:08.974Z,31.58
2023-04-27T18:11:36.160Z,32.62
2023-04-27T18:14:02.585Z,32.41
2023-04-27T18:16:29.219Z,33.04
2023-04-27T18:18:55.696Z,33.03
2023-04-27T18:21:22.157Z,33.96
2023-04-27T18:23:48.595Z,34.42
2023-04-27T18:26:15.004Z,35.01
2023-04-27T18:28:41.751Z,33.95
2023-04-27T18:31:18.213Z,33.53
2023-04-27T18:33:45.300Z,34.76
2023-04-27T18:36:11.955Z,34.69
2023-04-27T18:38:38.652Z,35.14
2023-04-27T18:41:05.031Z,36.43
2023-04-27T18:43:34.819Z,34.80
2023-04-27T18:46:01.201Z,35.22
2023-04-27T18:48:27.632Z,36.24
2023-04-27T18:50:54.148Z,36.04
2023-04-27T18:53:21.110Z,34.91
2023-04-27T18:55:47.480Z,35.46
2023-04-27T18:58:13.875Z,35.44
2023-04-27T19:00:40.453Z,35.65
2023-04-27T19:03:07.128Z,35.53
2023-04-27T19:05:33.559Z,35.46
2023-04-27T19:07:59.991Z,35.60
2023-04-27T19:10:26.443Z,35.14
2023-04-27T19:12:53.239Z,36.02
2023-04-27T19:15:19.629Z,36.25
2023-04-27T19:17:47.260Z,36.00
2023-04-27T19:20:16.932Z,35.90
2023-04-27T19:22:43.312Z,35.71
2023-04-27T19:25:09.994Z,35.65
2023-04-27T19:27:36.570Z,36.50
2023-04-27T19:30:04.229Z,37.35
2023-04-27T19:32:30.854Z,36.68
2023-04-27T19:34:58.710Z,36.88
2023-04-27T19:37:26.067Z,36.95
2023-04-27T19:39:52.669Z,37.87
2023-04-27T19:42:19.200Z,38.24
2023-04-27T19:44:45.834Z,37.81
2023-04-27T19:47:12.164Z,37.41
2023-04-27T19:49:38.649Z,37.48
2023-04-27T19:52:10.330Z,36.98
2023-04-27T19:54:38.045Z,37.83
2023-04-27T19:57:04.660Z,36.73
2023-04-27T19:59:30.989Z,36.23
2023-04-27T20:02:04.284Z,36.73
2023-04-27T20:04:31.101Z,37.78
2023-04-27T20:06:57.562Z,37.39
2023-04-27T20:09:23.927Z,37.34
2023-04-27T20:11:50.399Z,37.23
2023-04-27T20:14:17.049Z,37.89
2023-04-27T20:16:44.648Z,39.38
2023-04-27T20:19:11.226Z,38.96
2023-04-27T20:21:38.085Z,38.06
2023-04-27T20:24:04.640Z,38.49
2023-04-27T20:26:31.023Z,38.51
2023-04-27T20:28:57.363Z,37.81
2023-04-27T20:31:23.749Z,38.54
2023-04-27T20:33:50.104Z,38.97
2023-04-27T20:36:18.313Z,38.59
2023-04-27T20:38:45.354Z,39.87
2023-04-27T20:41:12.252Z,39.94
2023-04-27T20:43:41.637Z,38.23
2023-04-27T20:46:08.112Z,39.62
2023-04-27T20:48:34.623Z,38.64
2023-04-27T20:51:01.084Z,38.05
2023-04-27T20:53:27.859Z,38.03
2023-04-27T20:55:54.224Z,38.77
2023-04-27T20:58:20.696Z,39.39
2023-04-27T21:00:47.038Z,39.30
2023-04-27T21:03:13.584Z,38.58
2023-04-27T21:05:41.117Z,38.59
2023-04-27T21:08:07.538Z,38.79
2023-04-27T21:10:35.308Z,39.47
2023-04-27T21:13:03.138Z,39.57
2023-04-27T21:15:29.684Z,39.64
2023-04-27T21:17:56.058Z,40.10
2023-04-27T21:20:22.456Z,39.89
2023-04-27T21:22:48.788Z,40.40
2023-04-27T21:25:15.123Z,39.70
2023-04-27T21:27:41.618Z,41.23
2023-04-27T21:30:08.687Z,39.19
2023-04-27T21:32:35.093Z,39.86
2023-04-27T21:35:01.578Z,39.48
2023-04-27T21:37:27.941Z,40.29
2023-04-27T21:39:54.300Z,40.10
2023-04-27T21:42:20.674Z,40.45
2023-04-27T21:44:47.066Z,41.20
2023-04-27T21:47:13.417Z,39.69
2023-04-27T21:49:39.779Z,40.03
2023-04-27T21:52:06.160Z,40.02
2023-04-27T21:54:32.514Z,40.09
2023-04-27T21:56:58.879Z,39.73
2023-04-27T21:59:25.232Z,41.16
2023-04-27T22:01:51.626Z,40.77
2023-04-27T22:04:18.295Z,40.80
2023-04-27T22:06:45.382Z,40.50
2023-04-27T22:09:12.199Z,42.17
2023-04-27T22:11:38.760Z,40.93
2023-04-27T22:14:05.351Z,40.60
2023-04-27T22:16:31.682Z,41.94
2023-04-27T22:18:58.413Z,42.19
2023-04-27T22:21:24.968Z,41.63
2023-04-27T22:23:51.335Z,41.21
2023-04-27T22:26:17.828Z,41.71
2023-04-27T22:28:44.167Z,41.57
2023-04-27T22:31:10.642Z,43.10
2023-04-27T22:33:37.135Z,43.08
2023-04-27T22:36:03.637Z,43.03
2023-04-27T22:38:29.984Z,44.19
2023-04-27T22:40:56.332Z,45.11
2023-04-27T22:43:22.766Z,46.83
2023-04-27T22:45:49.199Z,47.40
2023-04-27T22:48:16.216Z,49.93
2023-04-27T22:50:42.594Z,51.76
2023-04-27T22:53:09.045Z,51.87
2023-04-27T22:55:35.447Z,52.20
2023-04-27T22:58:01.807Z,52.54
2023-04-27T23:00:28.270Z,55.06
2023-04-27T23:02:54.794Z,54.69
2023-04-27T23:05:22.064Z,55.60
2023-04-27T23:07:50.488Z,55.29
2023-04-27T23:10:18.714Z,55.99
2023-04-27T23:12:45.103Z,56.64
2023-04-27T23:15:11.558Z,55.98
2023-04-27T23:17:37.993Z,56.59
2023-04-27T23:20:26.757Z,56.26
2023-04-27T23:22:54.910Z,56.25
2023-04-27T23:25:21.599Z,55.58
2023-04-27T23:27:49.883Z,56.88
2023-04-27T23:30:17.657Z,58.19
2023-04-27T23:32:44.060Z,57.37
2023-04-27T23:35:10.532Z,57.46
2023-04-27T23:37:36.852Z,57.45
2023-04-27T23:40:04.167Z,56.84
2023-04-27T23:42:30.511Z,56.62
2023-04-27T23:44:57.509Z,56.58
2023-04-27T23:47:23.826Z,55.54
2023-04-27T23:49:50.314Z,56.30
2023-04-27T23:52:16.774Z,56.74
2023-04-27T23:54:43.160Z,56.83
2023-04-27T23:57:09.762Z,57.67
2023-04-27T23:59:36.359Z,58.18
